Impacts TAF Board INFO
FOR SITUATIONAL AWARENESS. NOT TO BE USED FOR FLIGHT PLANNING PURPOSES.
IDs:

KSFO - San Francisco Intl, CA, US

Issued at 0902 UTC 23 Jan 2018
Updated at 1022 UTC 23 Jan 2018
Potential Impact None Slight Moderate High
Time0956Z 23/11Z 23/12Z 23/13Z 23/14Z 23/15Z 23/16Z 23/17Z 23/18Z 23/19Z 23/20Z 23/21Z 23/22Z 23/23Z>>
Type OBS PRVL PRVL
  [TEMP]  
PRVL
  [TEMP]  
PRVL
  [TEMP]  
PRVL
  [TEMP]  
PRVL PRVL PRVL PRVL PRVL PRVL PRVL PRVL
VIS 10 >6 >6
  [3]  
>6
  [3]  
>6
  [3]  
>6
  [3]  
>6 >6 >6 >6 >6 >6 >6 >6
CIG -- 30 12
  [12]  
12
  [12]  
12
  [12]  
12
  [12]  
12 12 35 35 -- -- -- --
Cover FEW BKN BKN
  [BKN]  
BKN
  [BKN]  
BKN
  [BKN]  
BKN
  [BKN]  
BKN BKN BKN BKN SCT SCT SCT SCT
FltCat VFR MVFR MVFR
  [MVFR]  
MVFR
  [MVFR]  
MVFR
  [MVFR]  
MVFR
  [MVFR]  
MVFR MVFR VFR VFR VFR VFR VFR VFR
WX -- -- --
  [BR]  
--
  [BR]  
--
  [BR]  
--
  [BR]  
-- -- -- -- -- -- -- --
WDir 30 40 60
[60]
60
[60]
60
[60]
60
[60]
60 60 80 80 60 60 60 60
WSpd 4 4 5
  [5]  
5
  [5]  
5
  [5]  
5
  [5]  
5 5 3 3 5 5 5 5
WGst -- -- --
  [--]  
--
  [--]  
--
  [--]  
--
  [--]  
-- -- -- -- -- -- -- --

Raw TAF
KSFO 230902Z 2309/2412 04004KT P6SM BKN030 BKN050
  FM231200 06005KT P6SM BKN012
  TEMPO 2312/2316 3SM BR
  FM231800 08003KT P6SM BKN035
  FM232000 06005KT P6SM SCT015
  FM240400 18004KT P6SM SCT200


Raw METAR
KSFO 230956Z 03004KT 10SM FEW027 10/07 A3030 RMK AO2 SLP262 T01000067
KSFO 230856Z 02005KT 10SM FEW026 SCT029 SCT036 11/07 A3031 RMK AO2 SLP262 T01060067 58005
KSFO 230756Z 06008KT 10SM FEW034 BKN036 11/07 A3032 RMK AO2 SLP268 T01060067 401440106

METAR Board
Radar Display
Forecast Discussion

FOR SITUATIONAL AWARENESS. NOT TO BE USED FOR FLIGHT PLANNING PURPOSES.